Terminal Aerodrome Forecast
Issued by NWS Detroit/Pontiac, MI

Home | Current Version | Previous Version | Text Only | Print | Product List | Glossary On
Versions: 1 2 3 4 5 6 7 8 9 10 11 12 13 14 15 16 17 18 19 20 21 22 23 24 25 26 27
211
FTUS43 KDTX 251123
TAFDTW
TAF
KDTW 251123Z 2512/2618 34013KT 6SM -RA BR OVC007
     FM251400 34013KT P6SM BKN015 OVC025
     FM251700 34013G20KT P6SM SCT025 BKN040
     FM260200 32005KT P6SM SCT045
     FM261000 27003KT 3SM BR SKC=

USA.gov is the U.S. government's official web portal to all federal, state and local government web resources and services.